Time;durP1;ratioP1;P1;durP2;ratioP2;P2;SDS_P1;SDS_P2;PMS_P1;PMS_P2;Temp;Humidity;BMP_temperature;BMP_pressure;BME280_temperature;BME280_humidity;BME280_pressure;Samples;Min_cycle;Max_cycle;Signal;HPM_P1;HPM_P2
2022/06/14 00:01:01;;;;;;;3.43;1.70;;;14.00;99.90;14.80;97231.00;;;;5090817;28;20586;-64
2022/06/14 00:03:50;;;;;;;3.47;1.60;;;13.90;99.90;15.10;97233.00;;;;5084391;28;20263;-64
2022/06/14 00:06:39;;;;;;;6.23;2.20;;;13.80;99.90;15.00;97234.00;;;;5089871;28;20215;-64
2022/06/14 00:09:28;;;;;;;1.63;1.53;;;13.80;99.90;14.60;97239.00;;;;5087759;28;20211;-64
2022/06/14 00:12:16;;;;;;;4.67;1.80;;;13.80;99.90;14.90;97256.00;;;;5079330;28;20196;-64
2022/06/14 00:15:06;;;;;;;2.70;2.00;;;13.80;99.90;15.20;97253.00;;;;5078060;28;20605;-64
2022/06/14 00:17:56;;;;;;;5.00;1.63;;;13.80;99.90;15.20;97258.00;;;;5082622;28;20222;-64
2022/06/14 00:20:47;;;;;;;2.27;1.60;;;13.90;99.90;14.60;97257.00;;;;5087020;28;20206;-64
2022/06/14 00:23:37;;;;;;;3.17;2.13;;;13.80;99.90;14.90;97263.00;;;;5081061;28;20610;-64
2022/06/14 00:26:26;;;;;;;2.60;1.70;;;13.70;99.90;14.80;97249.00;;;;5082965;28;20192;-64
2022/06/14 00:29:14;;;;;;;2.57;1.70;;;13.70;99.90;14.80;97245.00;;;;5090987;28;20192;-64
2022/06/14 00:32:04;;;;;;;1.67;1.57;;;13.70;99.90;14.20;97258.00;;;;5090017;28;20210;-64
2022/06/14 00:34:54;;;;;;;2.87;1.97;;;13.50;99.90;14.60;97253.00;;;;5091046;28;20277;-64
2022/06/14 00:37:43;;;;;;;2.27;1.67;;;13.50;99.90;14.80;97261.00;;;;5088082;28;20576;-63
2022/06/14 00:40:36;;;;;;;3.83;1.90;;;13.50;99.90;14.40;97270.00;;;;5080588;28;20214;-64
2022/06/14 00:43:26;;;;;;;3.87;2.30;;;13.40;99.90;14.30;97264.00;;;;5087112;28;20612;-64
2022/06/14 00:46:20;;;;;;;3.33;2.27;;;13.30;99.90;14.10;97263.00;;;;5090312;28;20695;-63
2022/06/14 00:49:18;;;;;;;4.00;2.10;;;13.20;99.90;13.90;97267.00;;;;5083919;28;20211;-64
2022/06/14 00:52:19;;;;;;;2.77;2.40;;;13.10;99.90;14.00;97268.00;;;;5079109;28;20204;-64
2022/06/14 00:55:20;;;;;;;2.40;1.83;;;13.10;99.90;14.20;97268.00;;;;5089460;28;20227;-64
2022/06/14 00:58:18;;;;;;;3.67;2.00;;;13.00;99.90;14.30;97276.00;;;;5090176;28;20206;-64
2022/06/14 01:01:14;;;;;;;3.77;1.90;;;13.00;99.90;14.60;97270.00;;;;5089885;28;20210;-64
2022/06/14 01:04:13;;;;;;;1.60;1.50;;;13.10;99.90;14.40;97269.00;;;;5090796;28;20211;-64
2022/06/14 01:07:11;;;;;;;2.83;1.97;;;13.10;99.90;14.00;97281.00;;;;5090456;28;20724;-64
2022/06/14 01:10:06;;;;;;;4.20;2.17;;;13.10;99.90;13.80;97276.00;;;;5090009;28;20598;-64
2022/06/14 01:12:59;;;;;;;2.23;2.07;;;12.90;99.90;13.30;97282.00;;;;5090364;28;20199;-64
2022/06/14 01:15:50;;;;;;;2.40;1.70;;;12.80;99.90;13.90;97289.00;;;;5090019;28;20191;-64
2022/06/14 01:18:40;;;;;;;3.53;2.00;;;12.70;99.90;13.80;97288.00;;;;5089617;28;20674;-63
2022/06/14 01:21:29;;;;;;;2.37;1.77;;;12.70;99.90;13.70;97289.00;;;;5088154;28;20595;-63
2022/06/14 01:24:22;;;;;;;2.00;1.90;;;12.70;99.90;13.70;97280.00;;;;5078233;28;20736;-64
2022/06/14 01:27:16;;;;;;;3.10;2.10;;;12.60;99.90;14.00;97287.00;;;;5083526;28;20223;-64
2022/06/14 01:30:14;;;;;;;3.67;2.10;;;12.70;99.90;14.20;97287.00;;;;5084945;28;20214;-64
2022/06/14 01:33:08;;;;;;;1.87;1.77;;;12.70;99.90;13.50;97296.00;;;;5088878;28;20249;-64
2022/06/14 01:36:02;;;;;;;2.60;2.40;;;12.70;99.90;13.20;97291.00;;;;5080707;28;20199;-64
2022/06/14 01:38:52;;;;;;;5.47;2.13;;;12.50;99.90;13.10;97294.00;;;;5077794;28;20203;-64
2022/06/14 01:41:56;;;;;;;4.10;1.90;;;12.40;99.90;13.60;97286.00;;;;5089922;28;20199;-64
2022/06/14 01:44:55;;;;;;;2.50;2.20;;;12.40;99.90;13.80;97291.00;;;;5090531;28;20246;-64
2022/06/14 01:47:53;;;;;;;2.27;1.93;;;12.50;99.90;13.40;97288.00;;;;5089157;28;20235;-64
2022/06/14 01:54:09;;;;;;;3.13;1.87;;;12.40;99.90;13.70;97289.00;;;;5082031;28;20238;-64
2022/06/14 01:57:10;;;;;;;2.60;2.17;;;12.50;99.90;13.10;97297.00;;;;5090407;28;20199;-64
2022/06/14 02:00:09;;;;;;;2.47;2.17;;;12.40;99.90;13.10;97297.00;;;;5089261;28;20581;-64
2022/06/14 02:06:19;;;;;;;2.67;2.03;;;12.30;99.90;13.20;97291.00;;;;5089291;28;20203;-64
2022/06/14 02:09:19;;;;;;;2.17;1.97;;;12.30;99.90;13.50;97287.00;;;;5088953;28;20207;-64
2022/06/14 02:12:15;;;;;;;3.13;2.83;;;12.30;99.90;13.60;97290.00;;;;5089093;28;20199;-64
2022/06/14 02:15:16;;;;;;;3.37;2.37;;;12.30;99.90;13.50;97294.00;;;;5083523;28;20219;-64
2022/06/14 02:18:13;;;;;;;2.50;2.30;;;12.30;99.90;13.50;97292.00;;;;5076513;28;20203;-64
2022/06/14 02:21:09;;;;;;;2.27;2.00;;;12.30;99.90;13.50;97291.00;;;;5077266;28;20203;-64
2022/06/14 02:24:06;;;;;;;2.90;1.90;;;12.30;99.90;13.30;97293.00;;;;5089759;28;20227;-63
2022/06/14 02:27:01;;;;;;;2.70;1.93;;;12.30;99.90;13.50;97292.00;;;;5084735;28;20898;-64
2022/06/14 02:29:56;;;;;;;5.67;1.97;;;12.30;99.90;13.20;97312.00;;;;5082379;28;20199;-64
2022/06/14 02:32:49;;;;;;;1.93;1.83;;;12.20;99.90;13.20;97300.00;;;;5076767;28;20199;-64
2022/06/14 02:35:47;;;;;;;2.70;2.03;;;12.20;99.90;13.20;97310.00;;;;5076188;28;20211;-64
2022/06/14 02:38:42;;;;;;;3.83;2.00;;;12.10;99.90;13.30;97306.00;;;;5087079;28;20192;-63
2022/06/14 02:41:39;;;;;;;2.47;1.87;;;12.10;99.90;13.10;97315.00;;;;5088379;28;20211;-64
2022/06/14 02:44:35;;;;;;;2.47;2.10;;;12.10;99.90;12.80;97309.00;;;;5089132;28;20235;-64
2022/06/14 02:47:28;;;;;;;2.40;2.00;;;;;12.60;97301.00;;;;5088482;28;20584;-64
2022/06/14 02:50:21;;;;;;;3.80;2.50;;;;;12.80;97307.00;;;;5075896;28;20207;-64
2022/06/14 02:53:14;;;;;;;3.70;2.93;;;;;12.10;97305.00;;;;5088402;28;20210;-64
2022/06/14 02:56:08;;;;;;;2.20;2.10;;;;;12.20;97309.00;;;;5089723;28;20587;-64
2022/06/14 02:58:59;;;;;;;2.37;2.17;;;;;12.40;97319.00;;;;5088956;28;20203;-63
2022/06/14 03:01:52;;;;;;;2.13;1.93;;;;;12.60;97319.00;;;;5085450;28;20702;-64
2022/06/14 03:04:46;;;;;;;3.53;2.33;;;;;12.50;97324.00;;;;5087735;28;20227;-63
2022/06/14 03:07:40;;;;;;;3.30;2.40;;;;;12.40;97321.00;;;;5088209;28;20226;-64
2022/06/14 03:10:37;;;;;;;7.83;2.63;;;;;12.30;97321.00;;;;5088984;28;20207;-64
2022/06/14 03:13:31;;;;;;;2.47;2.27;;;;;12.50;97330.00;;;;5089434;28;20234;-63
2022/06/14 03:16:26;;;;;;;4.67;2.63;;;;;12.80;97322.00;;;;5068919;28;20207;-64
2022/06/14 03:19:20;;;;;;;5.27;2.10;;;;;12.80;97333.00;;;;5082128;28;20776;-64
2022/06/14 03:22:17;;;;;;;3.43;2.33;;;;;12.70;97334.00;;;;5088034;28;20210;-64
2022/06/14 03:25:12;;;;;;;3.70;2.63;;;;;12.20;97338.00;;;;5091285;28;20215;-64
2022/06/14 03:28:06;;;;;;;2.90;2.63;;;;;11.70;97339.00;;;;5086673;28;20216;-64
2022/06/14 03:31:02;;;;;;;4.93;3.00;;;;;11.90;97338.00;;;;5082299;28;20613;-64
2022/06/14 03:33:57;;;;;;;3.77;2.53;;;;;11.90;97343.00;;;;5092668;28;20230;-64
2022/06/14 03:36:47;;;;;;;2.97;2.70;;;;;12.40;97348.00;;;;5091183;28;20204;-64
2022/06/14 03:39:40;;;;;;;3.33;2.40;;;;;12.60;97348.00;;;;5083569;28;20207;-64
2022/06/14 03:42:30;;;;;;;5.13;2.33;;;;;12.60;97354.00;;;;5082151;28;20722;-63
2022/06/14 03:45:22;;;;;;;4.67;2.53;;;;;12.60;97354.00;;;;5092446;28;20227;-64
2022/06/14 03:48:12;;;;;;;2.83;2.57;;;;;12.50;97359.00;;;;5091057;28;20232;-64
2022/06/14 03:51:09;;;;;;;2.73;2.40;;;;;12.80;97357.00;;;;5079457;28;20609;-64
2022/06/14 03:54:08;;;;;;;2.93;2.33;;;;;12.90;97363.00;;;;5092297;28;20223;-64
2022/06/14 03:57:11;;;;;;;2.90;2.67;;;;;12.80;97369.00;;;;5089780;28;20203;-64
2022/06/14 04:00:12;;;;;;;3.40;2.23;;;;;12.30;97355.00;;;;5085564;28;20658;-64
2022/06/14 04:03:20;;;;;;;4.43;2.13;;;;;12.40;97358.00;;;;5078048;28;20722;-64
2022/06/14 04:06:17;;;;;;;3.10;2.87;;;;;12.20;97354.00;;;;5082235;28;20678;-64
2022/06/14 04:09:17;;;;;;;2.97;2.67;;;;;12.50;97352.00;;;;5082871;28;20231;-64
2022/06/14 04:12:15;;;;;;;4.23;2.70;;;;;12.90;97361.00;;;;5084730;28;20196;-64
2022/06/14 04:15:12;;;;;;;2.87;2.20;;;;;12.70;97364.00;;;;5076109;28;20595;-64
2022/06/14 04:21:24;;;;;;;6.07;3.10;;;;;12.60;97360.00;;;;5079241;28;20200;-63
2022/06/14 04:24:19;;;;;;;2.80;2.53;;;;;12.90;97365.00;;;;5086359;28;20226;-64
2022/06/14 04:27:13;;;;;;;3.73;2.50;;;;;12.90;97357.00;;;;5083210;28;20206;-63
2022/06/14 04:30:08;;;;;;;2.67;2.33;;;;;13.00;97361.00;;;;5080659;28;20200;-64
2022/06/14 04:33:02;;;;;;;2.57;2.37;;;;;13.10;97360.00;;;;5081335;28;20570;-64
2022/06/14 04:35:53;;;;;;;3.07;2.87;;;;;13.00;97361.00;;;;5079511;28;20603;-64
2022/06/14 04:38:45;;;;;;;2.90;2.60;;;;;13.10;97359.00;;;;5073846;28;20211;-64
2022/06/14 04:41:38;;;;;;;5.37;2.90;;;;;13.20;97362.00;;;;5080949;28;20215;-64
2022/06/14 04:44:34;;;;;;;4.40;2.90;;;;;13.50;97358.00;;;;5080102;28;20227;-64
2022/06/14 04:47:26;;;;;;;3.57;3.00;;;;;13.60;97363.00;;;;5087768;28;20701;-64
2022/06/14 04:50:19;;;;;;;3.80;2.80;;;;;13.60;97363.00;;;;5076219;28;20678;-64
2022/06/14 04:53:12;;;;;;;4.23;2.87;;;;;13.80;97358.00;;;;5090600;28;20222;-64
2022/06/14 04:56:04;;;;;;;4.00;2.73;;;;;13.70;97358.00;;;;5090363;28;20210;-64
2022/06/14 04:58:56;;;;;;;3.17;2.50;;;;;13.90;97353.00;;;;5083248;28;20192;-64
2022/06/14 05:01:48;;;;;;;3.17;2.20;;;;;14.00;97358.00;;;;5079379;28;20215;-64
2022/06/14 05:04:40;;;;;;;3.43;2.53;;;;;14.30;97354.00;;;;5090356;28;20215;-64
2022/06/14 05:07:32;;;;;;;2.37;2.17;;;;;14.50;97354.00;;;;5089421;28;20203;-64
2022/06/14 05:10:24;;;;;;;4.13;2.50;;;;;14.60;97361.00;;;;5084975;28;20207;-64
2022/06/14 05:13:18;;;;;;;3.73;2.67;;;;;14.60;97345.00;;;;5071747;28;20215;-64
2022/06/14 05:16:09;;;;;;;3.07;2.77;;;;;15.00;97358.00;;;;5076257;28;20196;-64
2022/06/14 05:19:08;;;;;;;3.40;2.97;;;;;14.70;97350.00;;;;5080123;28;20203;-64
2022/06/14 05:22:00;;;;;;;2.90;2.70;;;;;15.10;97347.00;;;;5081192;28;20195;-64
2022/06/14 05:24:50;;;;;;;4.63;2.70;;;;;15.30;97355.00;;;;5085911;28;20227;-64
2022/06/14 05:27:53;;;;;;;4.60;2.80;;;;;15.40;97350.00;;;;5079742;28;20223;-63
2022/06/14 05:30:49;;;;;;;5.57;2.77;;;;;15.60;97356.00;;;;5080079;28;20203;-64
2022/06/14 05:33:53;;;;;;;5.17;3.23;;;;;15.80;97359.00;;;;5086665;28;20226;-64
2022/06/14 05:36:48;;;;;;;5.37;2.80;;;;;16.10;97362.00;;;;5086760;28;20206;-64
2022/06/14 05:39:42;;;;;;;3.10;2.80;;;;;16.50;97356.00;;;;5087704;28;20198;-64
2022/06/14 05:42:34;;;;;;;3.77;3.20;;;;;16.90;97359.00;;;;5081064;28;20191;-64
2022/06/14 05:45:23;;;;;;;7.30;3.00;;;;;17.30;97361.00;;;;5086197;28;20591;-64
2022/06/14 05:48:18;;;;;;;3.53;2.80;;;;;17.50;97355.00;;;;5082857;28;20231;-64
2022/06/14 05:51:09;;;;;;;4.47;2.87;;;;;17.40;97356.00;;;;5074358;28;20208;-64
2022/06/14 05:54:04;;;;;;;5.90;2.90;;;;;17.40;97359.00;;;;5090178;28;20223;-64
2022/06/14 05:56:58;;;;;;;7.80;2.73;;;;;17.50;97370.00;;;;5088873;28;20203;-64
2022/06/14 05:59:49;;;;;;;2.77;2.50;;;;;18.00;97364.00;;;;5076206;28;20217;-64
2022/06/14 06:02:40;;;;;;;8.37;2.87;;;;;18.30;97372.00;;;;5089350;28;20211;-64
2022/06/14 06:05:34;;;;;;;6.73;2.93;;;;;18.70;97363.00;;;;5084069;28;20218;-64
2022/06/14 06:08:27;;;;;;;6.20;2.53;;;;;18.90;97367.00;;;;5076777;28;20232;-64
2022/06/14 06:11:20;;;;;;;5.23;2.73;;;;;19.00;97375.00;;;;5085363;28;20199;-64
2022/06/14 06:14:12;;;;;;;2.43;2.33;;;;;19.10;97381.00;;;;5084757;28;20272;-64
2022/06/14 06:17:04;;;;;;;4.40;2.73;;;;;19.40;97373.00;;;;5078855;28;20192;-64
2022/06/14 06:19:59;;;;;;;3.43;1.93;;;;;19.50;97380.00;;;;5078032;28;20196;-64
2022/06/14 06:22:51;;;;;;;8.47;2.40;;;;;19.20;97381.00;;;;5081791;28;20218;-64
2022/06/14 06:25:51;;;;;;;3.67;3.27;;;;;19.70;97381.00;;;;5089097;28;20203;-64
2022/06/14 06:28:46;;;;;;;2.80;2.13;;;;;20.00;97390.00;;;;5085882;28;20231;-64
2022/06/14 06:31:37;;;;;;;3.40;1.93;;;;;19.80;97378.00;;;;5088549;28;20211;-64
2022/06/14 06:34:27;;;;;;;3.83;1.77;;;;;19.90;97394.00;;;;5080066;28;20219;-64
2022/06/14 06:37:19;;;;;;;1.97;1.87;;;;;20.30;97392.00;;;;5076772;28;20202;-64
2022/06/14 06:40:13;;;;;;;3.73;2.30;;;;;20.30;97393.00;;;;5089783;28;20568;-65
2022/06/14 06:43:06;;;;;;;2.77;1.97;;;;;20.50;97384.00;;;;5087578;28;20203;-64
2022/06/14 06:45:58;;;;;;;4.10;2.47;;;;;20.70;97375.00;;;;5081645;28;20203;-64
2022/06/14 06:48:59;;;;;;;4.80;2.40;;;;;20.80;97383.00;;;;5076487;28;20722;-64
2022/06/14 06:51:53;;;;;;;6.03;2.10;;;;;20.90;97390.00;;;;5082686;28;20200;-64
2022/06/14 06:54:47;;;;;;;5.57;2.50;;;;;20.50;97394.00;;;;5076543;28;20222;-64
2022/06/14 06:57:39;;;;;;;12.10;2.07;;;19.00;99.90;20.50;97392.00;;;;5088279;28;20199;-65
2022/06/14 07:00:29;;;;;;;8.63;2.90;;;19.00;99.90;21.10;97388.00;;;;5080155;28;20204;-65
2022/06/14 07:03:33;;;;;;;6.13;2.73;;;19.10;99.90;21.00;97393.00;;;;5082405;28;20675;-65
2022/06/14 07:06:28;;;;;;;3.90;3.17;;;19.20;99.90;21.00;97391.00;;;;5082559;28;20202;-65
2022/06/14 07:09:32;;;;;;;5.23;2.13;;;19.30;99.90;21.40;97388.00;;;;5093041;28;20218;-65
2022/06/14 07:12:29;;;;;;;11.20;2.53;;;19.40;99.90;21.70;97388.00;;;;5092971;28;20205;-65
2022/06/14 07:15:22;;;;;;;2.97;1.87;;;19.60;99.90;21.80;97394.00;;;;5092835;28;20223;-65
2022/06/14 07:18:18;;;;;;;3.63;1.80;;;19.70;99.90;21.60;97377.00;;;;5083181;28;20200;-65
2022/06/14 07:21:13;;;;;;;4.67;2.20;;;19.80;99.90;21.60;97397.00;;;;5083590;28;20195;-65
2022/06/14 07:24:08;;;;;;;4.57;1.60;;;19.90;99.90;21.70;97391.00;;;;5075386;28;20227;-65
2022/06/14 07:27:04;;;;;;;3.80;2.17;;;19.90;99.90;21.40;97392.00;;;;5081195;28;20195;-65
2022/06/14 07:29:58;;;;;;;7.00;2.27;;;20.00;99.90;20.60;97385.00;;;;5088592;28;20239;-64
2022/06/14 07:32:52;;;;;;;3.67;2.33;;;19.80;99.90;20.50;97389.00;;;;5083642;28;20555;-64
2022/06/14 07:35:48;;;;;;;5.43;2.20;;;19.60;99.80;21.40;97388.00;;;;5091674;28;20572;-64
2022/06/14 07:38:48;;;;;;;4.17;2.23;;;19.60;99.90;21.50;97386.00;;;;5092597;28;20689;-64
2022/06/14 07:41:47;;;;;;;2.33;2.13;;;19.80;99.90;21.40;97385.00;;;;5092748;28;20667;-64
2022/06/14 07:44:48;;;;;;;2.70;1.70;;;19.80;99.30;21.20;97389.00;;;;5092357;28;20239;-65
2022/06/14 07:47:50;;;;;;;2.67;1.97;;;19.90;98.70;21.50;97378.00;;;;5092491;28;20202;-64
2022/06/14 07:50:46;;;;;;;4.83;2.30;;;19.90;98.40;22.20;97380.00;;;;5091782;28;20222;-65
2022/06/14 07:53:41;;;;;;;2.23;1.93;;;20.00;98.90;22.30;97376.00;;;;5084105;28;20222;-64
2022/06/14 07:56:35;;;;;;;2.07;1.77;;;20.30;97.30;22.60;97363.00;;;;5087365;28;20199;-66
2022/06/14 07:59:28;;;;;;;4.73;2.00;;;20.50;96.50;23.00;97366.00;;;;5080202;28;20199;-65
2022/06/14 08:02:26;;;;;;;4.30;1.83;;;20.70;97.30;22.40;97364.00;;;;5091037;28;20195;-65
2022/06/14 08:05:21;;;;;;;4.33;2.30;;;20.80;95.00;22.90;97357.00;;;;5085630;28;20218;-65
2022/06/14 08:08:18;;;;;;;7.07;2.03;;;20.90;95.50;23.40;97362.00;;;;5092443;28;20203;-65
2022/06/14 08:11:16;;;;;;;2.40;1.43;;;21.10;95.40;23.00;97359.00;;;;5092183;28;20607;-65
2022/06/14 08:14:11;;;;;;;3.10;1.53;;;21.30;94.60;21.60;97352.00;;;;5078924;28;20211;-64
2022/06/14 08:17:01;;;;;;;3.20;1.80;;;21.10;92.40;21.40;97354.00;;;;5090895;28;20199;-64
2022/06/14 08:19:56;;;;;;;3.60;1.80;;;20.90;92.30;21.80;97355.00;;;;5081817;28;20187;-64
2022/06/14 08:22:50;;;;;;;3.07;2.77;;;20.90;92.10;22.60;97348.00;;;;5083413;28;20301;-64
2022/06/14 08:25:45;;;;;;;5.97;2.10;;;20.90;92.50;22.20;97340.00;;;;5087451;28;20199;-64
2022/06/14 08:28:40;;;;;;;2.17;1.77;;;20.90;92.00;22.80;97345.00;;;;5084702;28;20196;-64
2022/06/14 08:31:37;;;;;;;4.67;2.17;;;21.00;92.90;23.40;97345.00;;;;5086843;28;20195;-64
2022/06/14 08:34:33;;;;;;;4.90;1.90;;;21.30;94.10;21.90;97341.00;;;;5086703;28;20226;-64
2022/06/14 08:37:27;;;;;;;2.47;1.50;;;21.30;90.80;21.70;97361.00;;;;5086113;28;20559;-65
2022/06/14 08:40:37;;;;;;;4.50;2.07;;;21.20;91.40;21.50;97334.00;;;;5079420;28;20219;-65
2022/06/14 08:43:32;;;;;;;3.60;2.27;;;20.90;90.60;21.60;97330.00;;;;5079018;28;20260;-64
2022/06/14 08:46:38;;;;;;;2.03;1.83;;;20.80;90.30;21.70;97355.00;;;;5087197;28;20218;-64
2022/06/14 08:49:45;;;;;;;3.33;1.90;;;20.80;90.10;23.00;97355.00;;;;5083446;28;20203;-65
2022/06/14 08:53:02;;;;;;;3.43;1.97;;;21.10;91.20;22.20;97347.00;;;;5080545;28;20201;-64
2022/06/14 08:56:20;;;;;;;3.77;1.70;;;21.10;89.40;22.80;97332.00;;;;5088680;28;20206;-64
2022/06/14 08:59:49;;;;;;;5.67;1.60;;;21.10;86.40;23.00;97330.00;;;;5080217;28;20200;-64
2022/06/14 09:03:37;;;;;;;3.10;1.90;;;21.20;85.90;22.60;97317.00;;;;5090980;28;20198;-65
2022/06/14 09:07:05;;;;;;;2.63;1.97;;;21.40;86.30;22.10;97321.00;;;;5089012;28;20210;-65
2022/06/14 09:10:18;;;;;;;7.80;2.90;;;21.20;86.70;23.10;97327.00;;;;5090626;28;20223;-64
2022/06/14 09:13:44;;;;;;;4.20;2.03;;;21.40;85.50;23.60;97320.00;;;;5090599;28;20196;-65
2022/06/14 09:16:51;;;;;;;1.70;1.47;;;21.70;85.70;22.80;97330.00;;;;5090370;28;20203;-65
2022/06/14 09:20:01;;;;;;;3.37;2.07;;;21.70;83.30;23.10;97307.00;;;;5084684;28;20196;-64
2022/06/14 09:23:17;;;;;;;4.00;1.87;;;21.80;83.70;22.70;97296.00;;;;5073459;28;20203;-65
2022/06/14 09:26:34;;;;;;;7.60;2.33;;;21.80;84.60;23.40;97290.00;;;;5072957;28;20211;-65
2022/06/14 09:30:01;;;;;;;2.10;1.70;;;22.00;88.00;23.60;97291.00;;;;5089275;28;20207;-64
2022/06/14 09:33:27;;;;;;;2.13;1.90;;;22.20;83.40;23.50;97292.00;;;;5085261;28;20210;-64
2022/06/14 09:36:59;;;;;;;2.30;1.60;;;22.40;82.20;23.00;97275.00;;;;5055053;28;20210;-65
2022/06/14 09:40:41;;;;;;;2.70;1.67;;;22.20;81.20;22.70;97284.00;;;;5091065;28;20203;-64
2022/06/14 09:43:58;;;;;;;4.63;1.80;;;22.10;80.80;24.10;97274.00;;;;5007719;28;20242;-64
2022/06/14 09:47:26;;;;;;;3.37;1.60;;;22.40;84.30;23.50;97282.00;;;;5090466;28;20204;-64
2022/06/14 09:51:24;;;;;;;3.90;1.90;;;22.70;80.30;23.50;97268.00;;;;5090331;28;20222;-64
2022/06/14 09:55:11;;;;;;;2.50;1.97;;;22.80;78.90;25.70;97273.00;;;;5007520;28;20229;-64
2022/06/14 09:59:00;;;;;;;3.23;1.93;;;23.00;81.80;27.10;97266.00;;;;5028693;28;20242;-64
2022/06/14 10:02:00;;;;;;;2.37;1.47;;;23.90;83.80;25.50;97303.00;;;;5089288;28;20206;-64
2022/06/14 10:05:19;;;;;;;1.80;1.70;;;24.10;77.10;23.40;97298.00;;;;5089899;28;20229;-65
2022/06/14 10:08:42;;;;;;;3.47;2.10;;;23.60;75.70;23.70;97303.00;;;;5089688;28;20221;-65
2022/06/14 10:11:49;;;;;;;4.53;2.33;;;23.10;75.70;23.10;97290.00;;;;5089600;28;20248;-65
2022/06/14 10:14:47;;;;;;;3.50;2.13;;;22.80;77.70;22.20;97296.00;;;;5089859;28;20230;-64
2022/06/14 10:18:00;;;;;;;3.47;2.37;;;22.20;79.20;22.30;97267.00;;;;5082945;28;20565;-64
2022/06/14 10:20:57;;;;;;;6.17;3.37;;;21.90;80.10;23.50;97247.00;;;;5078318;28;20572;-64
2022/06/14 10:24:06;;;;;;;2.93;2.07;;;22.10;79.90;24.60;97246.00;;;;5089706;28;20612;-64
2022/06/14 10:30:31;;;;;;;7.17;2.37;;;23.10;78.00;24.50;97232.00;;;;5087387;28;20231;-65
2022/06/14 10:33:49;;;;;;;4.27;2.27;;;23.30;76.90;25.60;97236.00;;;;5080811;28;20203;-64
2022/06/14 10:37:15;;;;;;;4.53;1.73;;;23.60;79.00;26.30;97252.00;;;;5080248;28;20195;-64
2022/06/14 10:40:49;;;;;;;2.00;1.80;;;23.80;77.00;27.10;97229.00;;;;5089841;28;20225;-64
2022/06/14 10:43:47;;;;;;;3.67;2.10;;;24.30;76.10;26.70;97220.00;;;;5077430;28;20246;-64
2022/06/14 10:46:50;;;;;;;5.23;2.57;;;24.70;72.90;28.40;97222.00;;;;5083107;28;20203;-64
2022/06/14 10:50:09;;;;;;;3.53;2.47;;;25.20;73.10;26.90;97214.00;;;;5088599;28;20191;-65
2022/06/14 10:53:12;;;;;;;1.87;1.70;;;25.50;72.20;27.90;97208.00;;;;5087504;28;20218;-64
2022/06/14 10:56:36;;;;;;;3.20;1.67;;;25.80;74.00;28.70;97279.00;;;;5088949;28;20214;-64
2022/06/14 11:00:01;;;;;;;3.10;1.87;;;26.20;73.00;27.50;97275.00;;;;5089166;28;20207;-66
2022/06/14 11:03:24;;;;;;;5.30;2.10;;;25.90;71.40;25.90;97268.00;;;;5089179;28;20210;-65
2022/06/14 11:07:06;;;;;;;6.50;2.27;;;25.60;65.60;27.30;97235.00;;;;5087795;28;20199;-65
2022/06/14 11:10:39;;;;;;;6.33;2.37;;;25.20;68.60;27.90;97262.00;;;;5074621;28;20671;-65
2022/06/14 11:13:41;;;;;;;6.23;2.57;;;25.50;72.50;29.00;97232.00;;;;5078808;28;20277;-65
2022/06/14 11:16:45;;;;;;;3.77;2.00;;;25.80;69.50;28.50;97219.00;;;;5074549;28;20206;-65
2022/06/14 11:19:49;;;;;;;9.30;2.83;;;26.00;70.00;28.00;97185.00;;;;5081554;28;20725;-67
2022/06/14 11:22:43;;;;;;;7.07;2.17;;;26.10;68.60;27.20;97185.00;;;;5071587;28;20208;-65
2022/06/14 11:25:40;;;;;;;3.47;2.53;;;26.20;67.10;29.40;97196.00;;;;5077799;22;20242;-87
2022/06/14 11:28:45;;;;;;;3.90;1.77;;;26.60;73.30;30.80;97196.00;;;;5056655;28;20202;-87
2022/06/14 11:31:43;;;;;;;3.77;2.27;;;27.20;71.10;31.00;97198.00;;;;5065307;28;20219;-86
2022/06/14 11:34:57;;;;;;;5.33;1.70;;;27.70;68.20;30.50;97228.00;;;;5056403;28;20207;-87
2022/06/14 11:38:07;;;;;;;4.60;2.60;;;28.00;65.90;30.40;97222.00;;;;5067638;28;20229;-87
2022/06/14 11:41:01;;;;;;;4.43;1.93;;;28.10;64.70;28.90;97188.00;;;;5053649;28;20216;-87
2022/06/14 11:44:04;;;;;;;2.40;2.20;;;27.90;61.50;30.60;97184.00;;;;5068116;28;20252;-88
2022/06/14 11:47:07;;;;;;;1.87;1.60;;;28.10;63.70;30.90;97180.00;;;;5071245;28;20681;-88
2022/06/14 11:50:06;;;;;;;2.20;2.00;;;28.30;60.80;28.20;97168.00;;;;5071381;28;20214;-87
2022/06/14 11:53:33;;;;;;;5.27;2.10;;;27.80;58.00;30.00;97173.00;;;;5057034;28;20201;-88
2022/06/14 11:56:32;;;;;;;5.00;2.23;;;27.80;61.70;30.50;97171.00;;;;5061772;28;20222;-87
2022/06/14 12:00:04;;;;;;;2.17;1.57;;;28.10;61.70;32.10;97234.00;;;;5065257;28;20206;-88
2022/06/14 12:03:06;;;;;;;5.53;2.20;;;28.60;63.60;30.90;97234.00;;;;5048321;28;20695;-89
2022/06/14 12:06:05;;;;;;;3.03;1.87;;;28.70;59.60;29.80;97234.00;;;;5063164;28;20249;-87
2022/06/14 12:09:28;;;;;;;3.00;1.80;;;28.30;60.50;27.90;97233.00;;;;5064662;28;20664;-87
2022/06/14 12:12:27;;;;;;;4.20;1.80;;;27.60;58.80;30.90;97151.00;;;;5071801;28;20212;-88
2022/06/14 12:15:25;;;;;;;1.70;1.57;;;27.80;60.30;28.90;97159.00;;;;5065580;28;20200;-88
2022/06/14 12:18:20;;;;;;;1.60;1.47;;;28.00;59.00;27.50;97144.00;;;;5053409;28;20205;-89
2022/06/14 12:21:18;;;;;;;3.40;1.43;;;27.40;57.40;27.10;97147.00;;;;5070212;28;20615;-87
2022/06/14 12:24:17;;;;;;;2.83;2.07;;;27.00;57.40;26.70;97143.00;;;;5066584;28;20394;-87
2022/06/14 12:27:05;;;;;;;4.10;2.17;;;26.30;59.30;28.80;97138.00;;;;5069922;28;20368;-87
2022/06/14 12:29:59;;;;;;;3.03;2.00;;;26.60;59.80;29.60;97137.00;;;;5060427;28;20249;-88
2022/06/14 12:32:55;;;;;;;4.23;1.73;;;27.10;61.50;31.50;97145.00;;;;5069981;28;20662;-87
2022/06/14 12:35:54;;;;;;;2.93;1.70;;;27.80;61.70;32.50;97209.00;;;;5069542;28;20261;-87
2022/06/14 12:38:46;;;;;;;2.20;1.80;;;28.40;59.70;30.20;97174.00;;;;5065142;28;20691;-88
2022/06/14 12:41:40;;;;;;;3.83;2.30;;;28.50;57.30;30.80;97181.00;;;;5057807;28;20704;-87
2022/06/14 12:44:47;;;;;;;6.87;2.17;;;28.70;57.40;29.60;97208.00;;;;5067268;28;20215;-88
2022/06/14 12:48:05;;;;;;;2.10;1.80;;;28.30;57.90;30.80;97119.00;;;;5067985;28;20222;-88
2022/06/14 12:51:02;;;;;;;4.10;1.97;;;28.20;58.40;32.10;97172.00;;;;5057446;28;20232;-86
2022/06/14 12:53:59;;;;;;;2.00;1.60;;;28.80;59.00;32.60;97111.00;;;;5054002;28;20205;-88
2022/06/14 12:56:57;;;;;;;3.65;2.13;;;29.40;58.90;33.50;97115.00;;;;5053330;28;20402;-88
2022/06/14 12:59:54;;;;;;;2.20;2.00;;;30.00;58.00;34.20;97119.00;;;;5056016;28;20209;-90
2022/06/14 13:02:52;;;;;;;3.72;1.70;;;30.60;57.00;34.60;97112.00;;;;5054845;28;20300;-89
2022/06/14 13:05:46;;;;;;;3.20;2.00;;;31.20;56.90;32.20;97124.00;;;;5063922;28;20192;-89
2022/06/14 13:08:46;;;;;;;2.42;1.60;;;31.30;53.70;30.60;97126.00;;;;5052822;28;20212;-88
2022/06/14 13:11:58;;;;;;;2.45;1.90;;;30.50;53.70;28.40;97125.00;;;;5052585;28;20198;-89
2022/06/14 13:14:57;;;;;;;2.60;1.70;;;29.60;53.10;29.40;97100.00;;;;5064740;28;20210;-88
2022/06/14 13:18:04;;;;;;;4.40;2.20;;;29.00;54.30;29.80;97142.00;;;;5057571;28;20226;-88
2022/06/14 13:20:59;;;;;;;2.97;1.85;;;28.60;55.60;29.40;97118.00;;;;5049416;28;20204;-88
2022/06/14 13:24:05;;;;;;;4.00;2.20;;;28.50;57.10;26.60;97105.00;;;;5057295;28;20206;-89
2022/06/14 13:27:12;;;;;;;5.73;2.17;;;27.60;55.10;26.20;97124.00;;;;5061779;28;20242;-88
2022/06/14 13:30:12;;;;;;;4.53;3.10;;;26.60;56.10;24.90;97147.00;;;;5054676;28;20194;-89
2022/06/14 13:33:19;;;;;;;3.90;2.23;;;25.50;56.90;26.50;97136.00;;;;5063430;28;20192;-88
2022/06/14 13:36:21;;;;;;;4.50;2.20;;;25.10;57.60;27.50;97135.00;;;;5054098;28;20217;-89
2022/06/14 13:39:25;;;;;;;2.90;2.03;;;25.60;58.80;27.90;97131.00;;;;5059440;28;20539;-88
2022/06/14 13:42:25;;;;;;;3.63;2.13;;;25.90;57.90;28.80;97141.00;;;;5068089;28;20225;-88
2022/06/14 13:45:23;;;;;;;3.37;1.90;;;26.30;56.50;30.30;97142.00;;;;5064452;28;20207;-88
2022/06/14 13:48:24;;;;;;;2.43;1.77;;;26.90;59.60;29.60;97177.00;;;;5056855;28;20208;-89
2022/06/14 13:51:32;;;;;;;4.53;2.20;;;27.20;58.50;29.50;97175.00;;;;5077637;28;20218;-88
2022/06/14 13:54:31;;;;;;;2.87;1.87;;;27.20;58.90;27.60;97169.00;;;;5063277;28;20214;-87
2022/06/14 13:57:33;;;;;;;4.10;1.97;;;27.10;57.00;26.80;97155.00;;;;5056342;28;20232;-88
2022/06/14 14:00:29;;;;;;;4.73;1.90;;;26.60;57.10;27.00;97163.00;;;;5056376;28;20205;-88